Terminal Aerodrome Forecast
Issued by NWS Knoxville/Tri Cities, TN

Current Version | Previous Version | Text Only | Print | Product List | Glossary On
Versions: 1 2 3 4 5 6 7 8 9 10 11 12 13 14 15 16 17 18 19 20 21 22 23 24
000
FTUS44 KMRX 311121
TAFTRI
TAF
KTRI 311121Z 3112/0112 00000KT P6SM SCT050 BKN100
      TEMPO 3112/3113 4SM -RA BR BKN050
     FM311400 VRB03KT P6SM SCT050 BKN120
     FM010400 00000KT 5SM BR SCT030 BKN150
     FM010800 00000KT 3SM BR BKN020=

USA.gov is the U.S. government's official web portal to all federal, state and local government web resources and services.